createdAt,value
2019-02-16T00:02:26.537Z,3.90
2019-02-16T00:04:55.226Z,3.70
2019-02-16T00:07:24.100Z,3.60
2019-02-16T00:09:52.799Z,3.37
2019-02-16T00:12:21.542Z,5.40
2019-02-16T00:14:50.313Z,4.30
2019-02-16T00:17:18.948Z,3.27
2019-02-16T00:19:47.674Z,4.20
2019-02-16T00:22:16.373Z,4.17
2019-02-16T00:24:45.162Z,5.00
2019-02-16T00:27:13.889Z,3.10
2019-02-16T00:29:43.146Z,4.07
2019-02-16T00:32:11.767Z,2.80
2019-02-16T00:34:40.415Z,5.70
2019-02-16T00:37:09.069Z,4.83
2019-02-16T00:39:37.787Z,3.97
2019-02-16T00:42:06.552Z,4.20
2019-02-16T00:44:35.212Z,3.33
2019-02-16T00:47:04.032Z,4.70
2019-02-16T00:49:32.720Z,4.20
2019-02-16T00:52:01.511Z,4.07
2019-02-16T00:54:30.246Z,4.90
2019-02-16T00:56:58.994Z,4.50
2019-02-16T00:59:28.095Z,3.50
2019-02-16T01:01:56.823Z,4.47
2019-02-16T01:04:25.650Z,4.23
2019-02-16T01:06:54.388Z,3.33
2019-02-16T01:09:23.072Z,5.90
2019-02-16T01:11:51.778Z,3.33
2019-02-16T01:14:20.423Z,4.10
2019-02-16T01:16:49.111Z,3.13
2019-02-16T01:19:17.792Z,2.93
2019-02-16T01:21:46.459Z,2.93
2019-02-16T01:24:15.119Z,4.90
2019-02-16T01:26:43.900Z,6.00
2019-02-16T01:29:12.509Z,2.93
2019-02-16T01:31:41.223Z,6.80
2019-02-16T01:34:09.969Z,3.93
2019-02-16T01:36:38.662Z,3.43
2019-02-16T01:39:07.421Z,3.70
2019-02-16T01:41:36.237Z,3.20
2019-02-16T01:44:05.519Z,4.30
2019-02-16T01:46:34.221Z,4.53
2019-02-16T01:49:04.419Z,4.23
2019-02-16T01:51:33.126Z,3.83
2019-02-16T01:54:01.908Z,3.70
2019-02-16T01:56:30.696Z,4.30
2019-02-16T01:58:59.442Z,3.50
2019-02-16T02:01:28.306Z,3.70
2019-02-16T02:03:56.975Z,5.90
2019-02-16T02:06:25.644Z,3.07
2019-02-16T02:08:54.376Z,3.70
2019-02-16T02:11:23.063Z,3.70
2019-02-16T02:13:51.822Z,4.23
2019-02-16T02:16:20.534Z,3.57
2019-02-16T02:18:49.315Z,4.27
2019-02-16T02:21:18.019Z,3.77
2019-02-16T02:23:46.624Z,3.63
2019-02-16T02:26:15.287Z,5.07
2019-02-16T02:28:43.983Z,3.70
2019-02-16T02:31:12.784Z,3.43
2019-02-16T02:33:41.542Z,4.10
2019-02-16T02:36:10.178Z,3.20
2019-02-16T02:38:38.981Z,2.87
2019-02-16T02:41:07.621Z,4.40
2019-02-16T02:43:39.483Z,4.10
2019-02-16T02:46:13.699Z,5.30
2019-02-16T02:48:42.518Z,4.23
2019-02-16T02:51:11.215Z,3.20
2019-02-16T02:53:39.849Z,3.50
2019-02-16T02:56:09.186Z,4.57
2019-02-16T02:58:37.946Z,3.93
2019-02-16T03:01:06.685Z,3.33
2019-02-16T03:03:35.347Z,3.50
2019-02-16T03:06:04.160Z,3.40
2019-02-16T03:08:32.951Z,3.50
2019-02-16T03:11:01.671Z,3.30
2019-02-16T03:13:30.310Z,3.67
2019-02-16T03:15:59.160Z,5.97
2019-02-16T03:18:27.855Z,3.40
2019-02-16T03:20:56.656Z,4.53
2019-02-16T03:23:25.274Z,3.83
2019-02-16T03:26:05.817Z,3.50
2019-02-16T03:28:40.200Z,3.23
2019-02-16T03:31:46.761Z,3.47
2019-02-16T03:34:27.045Z,4.20
2019-02-16T03:37:10.147Z,3.33
2019-02-16T03:39:40.882Z,3.47
2019-02-16T03:42:09.618Z,4.43
2019-02-16T03:44:38.282Z,3.83
2019-02-16T03:47:06.879Z,3.73
2019-02-16T03:49:35.611Z,4.20
2019-02-16T03:52:13.260Z,3.50
2019-02-16T03:54:34.752Z,3.33
2019-02-16T03:57:03.399Z,4.70
2019-02-16T03:59:34.922Z,4.20
2019-02-16T04:02:03.752Z,3.70
2019-02-16T04:04:34.717Z,3.50
2019-02-16T04:07:03.493Z,3.37
2019-02-16T04:09:32.183Z,5.47
2019-02-16T04:12:00.894Z,4.20
2019-02-16T04:14:29.497Z,3.70
2019-02-16T04:16:58.259Z,3.10
2019-02-16T04:19:26.995Z,3.10
2019-02-16T04:21:56.248Z,3.70
2019-02-16T04:24:26.183Z,3.67
2019-02-16T04:26:54.976Z,4.47
2019-02-16T04:29:23.600Z,2.93
2019-02-16T04:31:52.333Z,3.47
2019-02-16T04:34:21.052Z,3.80
2019-02-16T04:36:49.644Z,4.47
2019-02-16T04:39:18.332Z,4.20
2019-02-16T04:41:47.119Z,3.97
2019-02-16T04:44:15.910Z,3.93
2019-02-16T04:46:44.723Z,3.50
2019-02-16T04:49:16.488Z,3.87
2019-02-16T04:51:45.113Z,3.13
2019-02-16T04:54:13.921Z,7.10
2019-02-16T04:56:45.749Z,3.57
2019-02-16T04:59:14.584Z,4.90
2019-02-16T05:01:43.320Z,3.33
2019-02-16T05:04:12.039Z,4.60
2019-02-16T05:06:40.656Z,3.20
2019-02-16T05:09:09.409Z,4.30
2019-02-16T05:11:38.149Z,3.83
2019-02-16T05:14:06.883Z,4.10
2019-02-16T05:16:35.647Z,4.10
2019-02-16T05:19:04.502Z,3.83
2019-02-16T05:21:33.146Z,4.63
2019-02-16T05:24:01.910Z,4.03
2019-02-16T05:26:30.659Z,4.50
2019-02-16T05:29:00.697Z,3.90
2019-02-16T05:31:29.408Z,3.70
2019-02-16T05:33:58.069Z,4.33
2019-02-16T05:36:26.829Z,2.90
2019-02-16T05:38:55.471Z,3.43
2019-02-16T05:41:24.178Z,3.43
2019-02-16T05:43:52.999Z,3.60
2019-02-16T05:46:21.601Z,3.77
2019-02-16T05:48:50.285Z,4.70
2019-02-16T05:51:19.055Z,4.50
2019-02-16T05:53:48.124Z,3.40
2019-02-16T05:56:16.996Z,3.60
2019-02-16T05:58:46.024Z,3.63
2019-02-16T06:01:14.672Z,3.60
2019-02-16T06:03:43.261Z,3.80
2019-02-16T06:06:11.924Z,4.40
2019-02-16T06:08:40.610Z,3.30
2019-02-16T06:11:09.271Z,3.10
2019-02-16T06:13:37.881Z,3.07
2019-02-16T06:16:06.526Z,3.70
2019-02-16T06:18:35.273Z,3.73
2019-02-16T06:21:03.961Z,3.77
2019-02-16T06:23:32.636Z,2.83
2019-02-16T06:26:01.292Z,3.50
2019-02-16T06:28:30.000Z,3.53
2019-02-16T06:30:58.627Z,3.53
2019-02-16T06:33:27.291Z,2.83
2019-02-16T06:35:57.768Z,3.50
2019-02-16T06:38:26.455Z,3.43
2019-02-16T06:40:55.099Z,3.50
2019-02-16T06:43:23.785Z,3.70
2019-02-16T06:45:52.539Z,3.40
2019-02-16T06:48:21.240Z,3.10
2019-02-16T06:50:49.853Z,3.30
2019-02-16T06:53:18.532Z,3.37
2019-02-16T06:55:48.922Z,4.00
2019-02-16T06:58:17.685Z,3.03
2019-02-16T07:00:46.409Z,5.30
2019-02-16T07:03:15.065Z,2.83
2019-02-16T07:05:43.752Z,4.00
2019-02-16T07:08:13.035Z,4.30
2019-02-16T07:10:41.742Z,3.47
2019-02-16T07:13:10.496Z,3.00
2019-02-16T07:15:39.404Z,3.10
2019-02-16T07:18:09.687Z,3.13
2019-02-16T07:20:38.433Z,3.07
2019-02-16T07:23:07.053Z,3.60
2019-02-16T07:25:35.879Z,5.30
2019-02-16T07:28:04.554Z,3.73
2019-02-16T07:30:33.288Z,3.87
2019-02-16T07:33:01.934Z,3.50
2019-02-16T07:35:30.741Z,3.00
2019-02-16T07:37:59.549Z,3.10
2019-02-16T07:40:28.301Z,3.10
2019-02-16T07:42:57.516Z,3.47
2019-02-16T07:45:41.570Z,2.50
2019-02-16T07:48:14.336Z,4.03
2019-02-16T07:50:47.426Z,2.70
2019-02-16T07:53:31.289Z,3.23
2019-02-16T07:55:59.053Z,3.10
2019-02-16T07:58:35.503Z,3.37
2019-02-16T08:01:11.830Z,3.80
2019-02-16T08:03:54.476Z,3.50
2019-02-16T08:06:36.812Z,3.20
2019-02-16T08:09:07.277Z,4.30
2019-02-16T08:11:46.381Z,2.30
2019-02-16T08:14:34.508Z,2.83
2019-02-16T08:17:04.820Z,3.20
2019-02-16T08:19:39.708Z,2.90
2019-02-16T08:22:12.774Z,3.47
2019-02-16T08:24:43.053Z,3.07
2019-02-16T08:27:16.038Z,3.10
2019-02-16T08:29:52.271Z,2.80
2019-02-16T08:32:34.660Z,3.27
2019-02-16T08:35:07.996Z,3.37
2019-02-16T08:37:47.128Z,4.07
2019-02-16T08:40:23.431Z,2.83
2019-02-16T08:43:08.548Z,3.07
2019-02-16T08:45:44.768Z,2.80
2019-02-16T08:48:15.121Z,3.13
2019-02-16T08:50:51.288Z,6.57
2019-02-16T08:53:24.242Z,4.00
2019-02-16T08:55:54.468Z,3.20
2019-02-16T08:58:24.860Z,2.63
2019-02-16T09:00:55.188Z,3.20
2019-02-16T09:03:31.395Z,3.00
2019-02-16T09:06:01.820Z,3.07
2019-02-16T09:08:35.268Z,5.50
2019-02-16T09:11:06.758Z,2.97
2019-02-16T09:13:38.559Z,4.10
2019-02-16T09:16:14.131Z,2.60
2019-02-16T09:18:44.423Z,2.63
2019-02-16T09:21:15.289Z,4.27
2019-02-16T09:23:45.839Z,3.70
2019-02-16T09:26:16.164Z,2.73
2019-02-16T09:29:02.834Z,2.60
2019-02-16T09:31:33.122Z,2.87
2019-02-16T09:34:09.130Z,4.43
2019-02-16T09:36:40.710Z,4.53
2019-02-16T09:39:17.125Z,2.80
2019-02-16T09:41:47.480Z,4.30
2019-02-16T09:44:29.668Z,3.47
2019-02-16T09:46:59.973Z,4.53
2019-02-16T09:49:46.906Z,3.10
2019-02-16T09:52:32.256Z,2.50
2019-02-16T09:55:08.143Z,2.70
2019-02-16T09:57:44.329Z,3.60
2019-02-16T10:00:14.798Z,2.70
2019-02-16T10:02:47.547Z,4.23
2019-02-16T10:05:23.966Z,2.80
2019-02-16T10:08:10.709Z,3.83
2019-02-16T10:10:47.139Z,4.67
2019-02-16T10:13:17.373Z,2.30
2019-02-16T10:15:52.051Z,3.53
2019-02-16T10:18:38.735Z,4.83
2019-02-16T10:21:18.015Z,2.63
2019-02-16T10:23:51.248Z,2.90
2019-02-16T10:26:37.796Z,3.53
2019-02-16T10:29:14.091Z,2.87
2019-02-16T10:31:50.461Z,2.60
2019-02-16T10:34:26.854Z,3.13
2019-02-16T10:36:57.303Z,2.93
2019-02-16T10:39:27.717Z,3.47
2019-02-16T10:42:07.131Z,3.60
2019-02-16T10:44:49.578Z,2.73
2019-02-16T10:47:39.287Z,2.60
2019-02-16T10:50:12.807Z,2.40
2019-02-16T10:52:48.976Z,3.23
2019-02-16T10:55:19.310Z,2.57
2019-02-16T10:57:58.584Z,3.50
2019-02-16T11:00:44.219Z,3.00
2019-02-16T11:03:30.821Z,2.87
2019-02-16T11:06:01.266Z,2.70
2019-02-16T11:08:37.303Z,2.73
2019-02-16T11:11:19.506Z,2.70
2019-02-16T11:14:01.619Z,2.33
2019-02-16T11:16:34.471Z,5.23
2019-02-16T11:19:20.013Z,2.47
2019-02-16T11:21:56.230Z,3.00
2019-02-16T11:24:42.851Z,2.83
2019-02-16T11:27:31.223Z,2.93
2019-02-16T11:30:19.254Z,2.60
2019-02-16T11:32:49.629Z,6.80
2019-02-16T11:35:26.290Z,3.07
2019-02-16T11:37:56.675Z,3.13
2019-02-16T11:40:36.021Z,2.80
2019-02-16T11:43:18.496Z,4.90
2019-02-16T11:45:48.845Z,2.47
2019-02-16T11:48:36.409Z,3.47
2019-02-16T11:51:09.568Z,2.63
2019-02-16T11:53:42.910Z,2.53
2019-02-16T11:56:22.388Z,2.40
2019-02-16T11:58:55.644Z,4.83
2019-02-16T12:01:32.388Z,2.77
2019-02-16T12:04:11.783Z,2.20
2019-02-16T12:06:42.235Z,3.23
2019-02-16T12:09:18.369Z,2.33
2019-02-16T12:11:57.837Z,3.00
2019-02-16T12:14:30.850Z,2.60
2019-02-16T12:17:01.208Z,3.33
2019-02-16T12:19:47.716Z,3.00
2019-02-16T12:22:18.073Z,2.57
2019-02-16T12:25:04.751Z,2.40
2019-02-16T12:27:35.148Z,2.30
2019-02-16T12:30:13.049Z,2.27
2019-02-16T12:32:43.398Z,3.90
2019-02-16T12:35:13.751Z,2.77
2019-02-16T12:37:50.587Z,2.47
2019-02-16T12:40:23.459Z,2.70
2019-02-16T12:42:59.362Z,3.00
2019-02-16T12:45:38.506Z,2.47
2019-02-16T12:48:09.082Z,3.37
2019-02-16T12:50:39.537Z,2.50
2019-02-16T12:53:21.908Z,1.97
2019-02-16T12:56:04.268Z,2.23
2019-02-16T12:58:34.566Z,2.30
2019-02-16T13:01:04.846Z,2.13
2019-02-16T13:03:40.683Z,2.63
2019-02-16T13:06:11.113Z,2.73
2019-02-16T13:08:48.286Z,2.50
2019-02-16T13:11:18.762Z,2.90
2019-02-16T13:13:49.026Z,2.63
2019-02-16T13:16:35.295Z,2.70
2019-02-16T13:19:08.365Z,3.63
2019-02-16T13:21:44.749Z,2.57
2019-02-16T13:24:15.071Z,2.17
2019-02-16T13:26:51.488Z,2.30
2019-02-16T13:29:36.783Z,2.33
2019-02-16T13:32:26.568Z,2.20
2019-02-16T13:35:08.799Z,2.07
2019-02-16T13:37:48.159Z,2.00
2019-02-16T13:40:33.322Z,2.30
2019-02-16T13:43:18.636Z,2.27
2019-02-16T13:45:59.323Z,1.97
2019-02-16T13:48:29.639Z,1.87
2019-02-16T13:51:11.845Z,2.20
2019-02-16T13:53:45.065Z,2.60
2019-02-16T13:56:31.457Z,2.10
2019-02-16T13:59:01.823Z,2.40
2019-02-16T14:01:34.589Z,2.40
2019-02-16T14:04:10.715Z,1.70
2019-02-16T14:06:43.690Z,2.07
2019-02-16T14:09:14.077Z,2.07
2019-02-16T14:11:59.191Z,2.33
2019-02-16T14:14:29.513Z,2.17
2019-02-16T14:17:11.854Z,1.70
2019-02-16T14:19:43.016Z,2.27
2019-02-16T14:22:11.706Z,2.40
2019-02-16T14:24:47.056Z,3.10
2019-02-16T14:27:15.699Z,1.70
2019-02-16T14:29:44.443Z,1.83
2019-02-16T14:32:13.266Z,1.70
2019-02-16T14:34:42.010Z,2.20
2019-02-16T14:37:18.165Z,2.10
2019-02-16T14:39:46.945Z,1.93
2019-02-16T14:42:15.692Z,3.37
2019-02-16T14:44:44.426Z,2.27
2019-02-16T14:47:13.271Z,1.50
2019-02-16T14:49:41.945Z,1.77
2019-02-16T14:52:10.786Z,2.37
2019-02-16T14:54:39.543Z,1.90
2019-02-16T14:57:08.207Z,1.70
2019-02-16T14:59:40.944Z,1.70
2019-02-16T15:02:09.544Z,2.00
2019-02-16T15:04:38.953Z,2.07
2019-02-16T15:07:07.620Z,1.70
2019-02-16T15:09:36.425Z,1.60
2019-02-16T15:12:05.192Z,1.90
2019-02-16T15:14:38.528Z,1.90
2019-02-16T15:17:07.336Z,1.83
2019-02-16T15:19:36.002Z,1.90
2019-02-16T15:22:05.212Z,2.20
2019-02-16T15:24:35.521Z,1.67
2019-02-16T15:27:04.271Z,1.73
2019-02-16T15:29:32.945Z,2.20
2019-02-16T15:32:01.694Z,1.97
2019-02-16T15:34:30.403Z,2.40
2019-02-16T15:36:59.019Z,1.67
2019-02-16T15:39:27.697Z,2.00
2019-02-16T15:41:56.387Z,1.97
2019-02-16T15:44:25.211Z,1.70
2019-02-16T15:46:53.918Z,2.37
2019-02-16T15:49:22.686Z,2.10
2019-02-16T15:51:51.372Z,1.90
2019-02-16T15:54:20.128Z,1.97
2019-02-16T15:56:53.438Z,2.37
2019-02-16T15:59:22.202Z,2.70
2019-02-16T16:01:50.987Z,1.50
2019-02-16T16:04:21.444Z,1.70
2019-02-16T16:06:50.248Z,1.70
2019-02-16T16:09:29.497Z,2.00
2019-02-16T16:12:08.652Z,1.77
2019-02-16T16:14:41.827Z,1.70
2019-02-16T16:17:14.859Z,1.90
2019-02-16T16:19:45.160Z,1.67
2019-02-16T16:22:15.604Z,1.57
2019-02-16T16:24:45.845Z,1.60
2019-02-16T16:27:31.229Z,1.57
2019-02-16T16:30:01.490Z,3.60
2019-02-16T16:32:40.625Z,1.50
2019-02-16T16:35:20.169Z,2.00
2019-02-16T16:37:59.260Z,1.60
2019-02-16T16:40:35.386Z,4.93
2019-02-16T16:43:05.735Z,2.00
2019-02-16T16:45:42.085Z,1.47
2019-02-16T16:48:17.924Z,1.67
2019-02-16T16:50:54.372Z,2.07
2019-02-16T16:53:42.587Z,1.87
2019-02-16T16:56:27.993Z,1.77
2019-02-16T16:59:05.354Z,1.93
2019-02-16T17:01:41.755Z,1.70
2019-02-16T17:04:17.855Z,1.60
2019-02-16T17:07:06.354Z,2.10
2019-02-16T17:09:51.406Z,2.93
2019-02-16T17:12:36.847Z,5.70
2019-02-16T17:15:22.126Z,5.33
2019-02-16T17:17:55.059Z,3.47
2019-02-16T17:20:34.400Z,5.17
2019-02-16T17:23:13.683Z,6.47
2019-02-16T17:25:50.884Z,6.83
2019-02-16T17:28:21.183Z,4.37
2019-02-16T17:30:54.592Z,8.20
2019-02-16T17:33:30.796Z,7.40
2019-02-16T17:36:06.971Z,5.33
2019-02-16T17:38:43.282Z,7.10
2019-02-16T17:41:19.629Z,10.03
2019-02-16T17:43:49.955Z,4.43
2019-02-16T17:46:36.579Z,9.90
2019-02-16T17:49:09.915Z,12.70
2019-02-16T17:51:40.224Z,9.37
2019-02-16T17:54:13.501Z,10.20
2019-02-16T17:56:46.742Z,8.67
2019-02-16T17:59:15.712Z,9.60
2019-02-16T18:01:45.992Z,8.00
2019-02-16T18:04:21.176Z,8.77
2019-02-16T18:07:08.031Z,8.70
2019-02-16T18:09:50.383Z,5.27
2019-02-16T18:12:26.489Z,8.40
2019-02-16T18:14:56.969Z,6.23
2019-02-16T18:17:27.330Z,6.40
2019-02-16T18:20:00.026Z,4.20
2019-02-16T18:22:35.446Z,5.93
2019-02-16T18:25:14.661Z,2.97
2019-02-16T18:27:47.902Z,2.17
2019-02-16T18:30:20.995Z,3.27
2019-02-16T18:32:51.387Z,3.00
2019-02-16T18:35:30.439Z,3.03
2019-02-16T18:38:16.984Z,1.73
2019-02-16T18:41:03.342Z,4.40
2019-02-16T18:43:36.481Z,5.43
2019-02-16T18:46:18.929Z,3.10
2019-02-16T18:48:49.240Z,4.00
2019-02-16T18:51:22.857Z,2.77
2019-02-16T18:53:56.020Z,7.20
2019-02-16T18:56:32.642Z,2.40
2019-02-16T18:59:12.111Z,2.80
2019-02-16T19:01:45.531Z,3.47
2019-02-16T19:04:27.766Z,2.80
2019-02-16T19:07:08.541Z,3.00
2019-02-16T19:09:38.903Z,4.00
2019-02-16T19:12:12.210Z,2.23
2019-02-16T19:14:42.456Z,2.53
2019-02-16T19:17:12.981Z,2.80
2019-02-16T19:19:49.195Z,2.77
2019-02-16T19:22:19.510Z,3.00
2019-02-16T19:25:01.740Z,6.50
2019-02-16T19:27:50.305Z,4.10
2019-02-16T19:30:20.583Z,7.10
2019-02-16T19:32:50.993Z,2.93
2019-02-16T19:35:27.302Z,4.80
2019-02-16T19:38:15.556Z,3.13
2019-02-16T19:41:01.964Z,3.60
2019-02-16T19:43:34.852Z,2.43
2019-02-16T19:46:07.769Z,2.40
2019-02-16T19:48:44.002Z,4.80
2019-02-16T19:51:14.434Z,2.50
2019-02-16T19:53:50.786Z,3.43
2019-02-16T19:56:21.214Z,2.77
2019-02-16T19:58:57.059Z,3.50
2019-02-16T20:01:43.688Z,2.90
2019-02-16T20:04:30.397Z,3.43
2019-02-16T20:07:16.591Z,5.10
2019-02-16T20:10:03.129Z,3.60
2019-02-16T20:12:49.768Z,3.90
2019-02-16T20:15:19.970Z,3.43
2019-02-16T20:17:50.233Z,3.97
2019-02-16T20:20:23.544Z,2.33
2019-02-16T20:22:58.212Z,3.93
2019-02-16T20:25:34.275Z,4.83
2019-02-16T20:28:19.725Z,4.37
2019-02-16T20:30:55.631Z,3.47
2019-02-16T20:33:25.963Z,2.40
2019-02-16T20:36:08.382Z,5.30
2019-02-16T20:38:38.657Z,2.77
2019-02-16T20:41:08.969Z,4.30
2019-02-16T20:43:44.768Z,4.20
2019-02-16T20:46:15.152Z,5.93
2019-02-16T20:49:01.502Z,5.00
2019-02-16T20:51:34.827Z,4.50
2019-02-16T20:54:07.808Z,4.53
2019-02-16T20:56:38.161Z,4.40
2019-02-16T20:59:17.723Z,3.30
2019-02-16T21:01:48.008Z,4.37
2019-02-16T21:04:34.702Z,4.10
2019-02-16T21:07:04.987Z,3.83
2019-02-16T21:09:35.290Z,4.83
2019-02-16T21:12:22.059Z,5.90
2019-02-16T21:14:55.221Z,5.10
2019-02-16T21:17:28.311Z,3.40
2019-02-16T21:20:07.502Z,4.73
2019-02-16T21:22:50.021Z,3.60
2019-02-16T21:25:35.249Z,6.37
2019-02-16T21:28:14.799Z,4.60
2019-02-16T21:31:03.431Z,3.53
2019-02-16T21:33:33.886Z,5.43
2019-02-16T21:36:22.223Z,5.03
2019-02-16T21:39:12.898Z,6.00
2019-02-16T21:41:59.629Z,3.60
2019-02-16T21:44:44.911Z,3.70
2019-02-16T21:47:21.068Z,3.63
2019-02-16T21:49:54.112Z,3.23
2019-02-16T21:52:39.409Z,2.50
2019-02-16T21:55:18.609Z,5.17
2019-02-16T21:57:48.852Z,4.13
2019-02-16T22:00:21.945Z,4.80
2019-02-16T22:02:52.176Z,3.90
2019-02-16T22:05:22.585Z,3.70
2019-02-16T22:08:09.099Z,2.70
2019-02-16T22:10:39.458Z,3.30
2019-02-16T22:13:08.173Z,4.00
2019-02-16T22:15:36.956Z,5.93
2019-02-16T22:18:05.674Z,4.33
2019-02-16T22:20:34.385Z,7.40
2019-02-16T22:23:03.225Z,4.20
2019-02-16T22:25:32.072Z,5.40
2019-02-16T22:28:00.906Z,4.33
2019-02-16T22:30:29.619Z,5.73
2019-02-16T22:32:58.351Z,4.27
2019-02-16T22:35:27.163Z,3.10
2019-02-16T22:37:55.795Z,6.70
2019-02-16T22:40:24.527Z,4.57
2019-02-16T22:42:53.266Z,3.80
2019-02-16T22:45:23.585Z,3.30
2019-02-16T22:47:52.298Z,4.10
2019-02-16T22:50:21.157Z,3.40
2019-02-16T22:52:49.779Z,3.93
2019-02-16T22:55:18.578Z,3.57
2019-02-16T22:57:47.155Z,3.90
2019-02-16T23:00:19.939Z,3.67
2019-02-16T23:02:50.761Z,4.70
2019-02-16T23:05:19.525Z,3.67
2019-02-16T23:07:48.211Z,3.77
2019-02-16T23:10:16.865Z,3.83
2019-02-16T23:12:45.528Z,4.70
2019-02-16T23:15:14.370Z,3.90
2019-02-16T23:17:43.200Z,3.57
2019-02-16T23:20:12.381Z,4.00
2019-02-16T23:22:41.163Z,3.60
2019-02-16T23:25:09.898Z,4.27
2019-02-16T23:27:38.627Z,3.93
2019-02-16T23:30:10.094Z,3.57
2019-02-16T23:32:39.405Z,5.20
2019-02-16T23:35:08.858Z,3.90
2019-02-16T23:37:37.545Z,4.30
2019-02-16T23:40:08.117Z,3.80
2019-02-16T23:42:36.712Z,3.30
2019-02-16T23:45:08.059Z,4.90
2019-02-16T23:47:36.841Z,5.03
2019-02-16T23:50:08.648Z,4.00
2019-02-16T23:52:37.454Z,3.97
2019-02-16T23:55:09.057Z,4.77
2019-02-16T23:57:37.849Z,4.33
